createdAt,value
2018-06-18T00:00:44.661Z,101762.14
2018-06-18T00:03:12.723Z,101753.75
2018-06-18T00:05:40.764Z,101759.09
2018-06-18T00:08:08.867Z,101750.41
2018-06-18T00:10:36.930Z,101751.67
2018-06-18T00:13:04.975Z,101741.80
2018-06-18T00:15:33.023Z,101745.17
2018-06-18T00:18:01.101Z,101749.61
2018-06-18T00:20:29.150Z,101751.58
2018-06-18T00:22:57.220Z,101740.20
2018-06-18T00:25:25.296Z,101743.93
2018-06-18T00:27:53.348Z,101745.90
2018-06-18T00:30:21.398Z,101745.66
2018-06-18T00:32:49.435Z,101739.86
2018-06-18T00:35:17.496Z,101737.75
2018-06-18T00:37:45.528Z,101737.55
2018-06-18T00:40:13.672Z,101740.70
2018-06-18T00:42:41.718Z,101740.09
2018-06-18T00:45:09.785Z,101738.20
2018-06-18T00:47:37.828Z,101741.94
2018-06-18T00:50:05.929Z,101734.73
2018-06-18T00:52:33.975Z,101743.69
2018-06-18T00:55:02.052Z,101744.52
2018-06-18T00:57:30.101Z,101747.06
2018-06-18T00:59:58.160Z,101751.25
2018-06-18T01:02:26.204Z,101748.45
2018-06-18T01:04:54.254Z,101745.45
2018-06-18T01:07:22.316Z,101736.25
2018-06-18T01:09:50.380Z,101745.66
2018-06-18T01:12:18.453Z,101746.02
2018-06-18T01:14:46.541Z,101748.94
2018-06-18T01:17:14.590Z,101745.35
2018-06-18T01:19:49.469Z,101745.35
2018-06-18T01:22:17.517Z,101742.09
2018-06-18T01:25:00.181Z,101734.30
2018-06-18T01:27:28.237Z,101734.98
2018-06-18T01:29:56.672Z,101726.61
2018-06-18T01:32:25.142Z,101718.84
2018-06-18T01:34:53.192Z,101710.80
2018-06-18T01:37:21.231Z,101711.97
2018-06-18T01:39:49.316Z,101704.42
2018-06-18T01:44:51.751Z,101703.81
2018-06-18T01:47:19.793Z,101701.84
2018-06-18T01:49:47.860Z,101699.05
2018-06-18T01:52:15.912Z,101694.86
2018-06-18T01:54:43.956Z,101697.89
2018-06-18T01:57:12.018Z,101705.09
2018-06-18T01:59:40.101Z,101707.06
2018-06-18T02:02:08.136Z,101706.27
2018-06-18T02:04:36.179Z,101718.48
2018-06-18T02:07:04.320Z,101723.24
2018-06-18T02:09:32.360Z,101736.84
2018-06-18T02:12:00.392Z,101732.33
2018-06-18T02:14:28.431Z,101736.52
2018-06-18T02:16:56.484Z,101727.31
2018-06-18T02:19:24.525Z,101728.72
2018-06-18T02:21:52.595Z,101720.34
2018-06-18T02:24:20.640Z,101718.94
2018-06-18T02:26:52.880Z,101715.78
2018-06-18T02:29:26.213Z,101721.16
2018-06-18T02:31:59.557Z,101728.47
2018-06-18T02:34:32.988Z,101729.07
2018-06-18T02:37:06.484Z,101735.81
2018-06-18T02:39:38.752Z,101729.77
2018-06-18T02:42:06.793Z,101726.97
2018-06-18T02:44:34.844Z,101721.50
2018-06-18T02:47:02.892Z,101732.21
2018-06-18T02:49:30.928Z,101725.13
2018-06-18T02:51:59.027Z,101718.97
2018-06-18T02:54:27.063Z,101724.56
2018-06-18T02:56:57.949Z,101723.27
2018-06-18T02:59:25.993Z,101721.67
2018-06-18T03:01:54.040Z,101724.92
2018-06-18T03:04:22.085Z,101720.95
2018-06-18T03:06:50.144Z,101720.12
2018-06-18T03:09:18.192Z,101718.16
2018-06-18T03:11:46.269Z,101719.34
2018-06-18T03:14:14.316Z,101722.45
2018-06-18T03:16:42.359Z,101715.84
2018-06-18T03:19:15.875Z,101716.41
2018-06-18T03:21:49.279Z,101726.18
2018-06-18T03:24:22.762Z,101714.80
2018-06-18T03:26:56.289Z,101714.09
2018-06-18T03:29:26.802Z,101715.85
2018-06-18T03:31:56.611Z,101720.40
2018-06-18T03:34:24.651Z,101715.64
2018-06-18T03:36:52.958Z,101721.68
2018-06-18T03:39:21.000Z,101720.14
2018-06-18T03:41:50.533Z,101718.63
2018-06-18T03:44:26.679Z,101724.09
2018-06-18T03:46:55.360Z,101728.75
2018-06-18T03:49:23.439Z,101737.34
2018-06-18T03:51:51.484Z,101741.31
2018-06-18T03:54:19.535Z,101736.88
2018-06-18T03:56:47.590Z,101734.22
2018-06-18T03:59:15.644Z,101737.80
2018-06-18T04:01:56.495Z,101744.66
2018-06-18T04:04:29.931Z,101746.17
2018-06-18T04:07:03.328Z,101740.73
2018-06-18T04:09:36.777Z,101737.34
2018-06-18T04:12:06.808Z,101738.41
2018-06-18T04:14:35.227Z,101728.75
2018-06-18T04:17:03.277Z,101725.13
2018-06-18T04:19:31.327Z,101725.95
2018-06-18T04:21:59.379Z,101728.96
2018-06-18T04:24:27.404Z,101734.33
2018-06-18T04:26:55.683Z,101734.79
2018-06-18T04:29:23.756Z,101734.55
2018-06-18T04:31:53.183Z,101737.68
2018-06-18T04:34:28.049Z,101735.23
2018-06-18T04:36:56.971Z,101740.45
2018-06-18T04:39:25.063Z,101744.30
2018-06-18T04:41:58.415Z,101746.63
2018-06-18T04:44:31.897Z,101739.91
2018-06-18T04:47:05.461Z,101745.95
2018-06-18T04:49:38.875Z,101747.11
2018-06-18T04:52:06.915Z,101742.45
2018-06-18T04:54:34.955Z,101750.69
2018-06-18T04:57:03.112Z,101753.58
2018-06-18T04:59:32.364Z,101758.69
2018-06-18T05:02:02.130Z,101754.05
2018-06-18T05:04:30.232Z,101756.98
2018-06-18T05:06:58.548Z,101759.63
2018-06-18T05:09:33.530Z,101756.23
2018-06-18T05:12:01.561Z,101750.26
2018-06-18T05:14:29.618Z,101743.48
2018-06-18T05:16:57.649Z,101743.38
2018-06-18T05:19:25.737Z,101729.49
2018-06-18T05:21:53.767Z,101711.20
2018-06-18T05:24:21.820Z,101699.20
2018-06-18T05:26:51.979Z,101701.91
2018-06-18T05:29:21.700Z,101711.78
2018-06-18T05:31:49.737Z,101715.94
2018-06-18T05:34:20.245Z,101710.44
2018-06-18T05:36:48.880Z,101715.00
2018-06-18T05:39:16.933Z,101712.20
2018-06-18T05:41:45.000Z,101717.87
2018-06-18T05:44:13.060Z,101725.66
2018-06-18T05:46:41.112Z,101733.88
2018-06-18T05:49:09.196Z,101741.87
2018-06-18T05:51:37.264Z,101752.98
2018-06-18T05:54:05.345Z,101747.38
2018-06-18T05:56:33.453Z,101751.33
2018-06-18T05:59:08.384Z,101743.78
2018-06-18T06:01:36.442Z,101747.86
2018-06-18T06:04:04.507Z,101745.33
2018-06-18T06:06:32.565Z,101735.16
2018-06-18T06:09:00.697Z,101740.52
2018-06-18T06:11:28.748Z,101756.86
2018-06-18T06:13:56.824Z,101757.69
2018-06-18T06:16:24.889Z,101753.22
2018-06-18T06:18:52.956Z,101753.75
2018-06-18T06:21:21.018Z,101750.83
2018-06-18T06:23:49.043Z,101749.38
2018-06-18T06:26:17.107Z,101747.53
2018-06-18T06:28:45.181Z,101754.60
2018-06-18T06:31:13.228Z,101755.42
2018-06-18T06:33:41.273Z,101759.91
2018-06-18T06:36:10.262Z,101767.28
2018-06-18T06:38:38.589Z,101762.17
2018-06-18T06:41:07.431Z,101760.77
2018-06-18T06:43:35.489Z,101770.66
2018-06-18T06:46:03.573Z,101767.41
2018-06-18T06:48:31.647Z,101767.33
2018-06-18T06:50:59.717Z,101774.42
2018-06-18T06:53:27.804Z,101770.16
2018-06-18T06:55:55.920Z,101769.63
2018-06-18T06:58:23.906Z,101768.95
2018-06-18T07:00:51.964Z,101773.92
2018-06-18T07:03:20.004Z,101773.42
2018-06-18T07:05:48.060Z,101772.02
2018-06-18T07:08:16.100Z,101770.44
2018-06-18T07:10:44.156Z,101763.72
2018-06-18T07:13:12.206Z,101758.03
2018-06-18T07:15:40.252Z,101753.62
2018-06-18T07:18:08.606Z,101755.31
2018-06-18T07:20:36.651Z,101749.09
2018-06-18T07:23:04.712Z,101745.84
2018-06-18T07:25:32.796Z,101751.37
2018-06-18T07:28:00.859Z,101753.44
2018-06-18T07:30:29.035Z,101755.87
2018-06-18T07:32:56.960Z,101751.20
2018-06-18T07:35:25.020Z,101752.25
2018-06-18T07:37:53.085Z,101753.91
2018-06-18T07:40:21.141Z,101748.41
2018-06-18T07:42:49.193Z,101744.52
2018-06-18T07:45:17.265Z,101745.47
2018-06-18T07:47:45.308Z,101738.44
2018-06-18T07:50:13.387Z,101744.52
2018-06-18T07:52:41.428Z,101749.01
2018-06-18T07:55:09.505Z,101745.50
2018-06-18T07:57:37.568Z,101750.28
2018-06-18T08:00:05.791Z,101743.41
2018-06-18T08:02:33.857Z,101743.88
2018-06-18T08:05:01.917Z,101751.85
2018-06-18T08:07:29.980Z,101739.38
2018-06-18T08:09:58.048Z,101725.38
2018-06-18T08:12:26.107Z,101729.92
2018-06-18T08:14:54.192Z,101726.75
2018-06-18T08:17:22.261Z,101734.55
2018-06-18T08:19:50.331Z,101729.02
2018-06-18T08:22:18.389Z,101728.66
2018-06-18T08:24:46.453Z,101727.38
2018-06-18T08:27:14.533Z,101726.14
2018-06-18T08:29:42.685Z,101729.21
2018-06-18T08:32:10.773Z,101724.94
2018-06-18T08:34:38.888Z,101723.41
2018-06-18T08:37:06.996Z,101732.45
2018-06-18T08:39:35.082Z,101732.49
2018-06-18T08:42:03.153Z,101720.23
2018-06-18T08:44:31.211Z,101727.14
2018-06-18T08:46:59.295Z,101720.24
2018-06-18T08:49:27.357Z,101723.36
2018-06-18T08:52:00.755Z,101721.36
2018-06-18T08:55:35.121Z,101712.05
2018-06-18T08:58:08.489Z,101729.92
2018-06-18T09:00:41.882Z,101724.53
2018-06-18T09:03:16.169Z,101724.53
2018-06-18T09:05:53.600Z,101727.52
2018-06-18T09:08:23.300Z,101727.97
2018-06-18T09:10:51.654Z,101726.79
2018-06-18T09:13:19.745Z,101729.24
2018-06-18T09:15:47.845Z,101741.42
2018-06-18T09:18:15.916Z,101744.69
2018-06-18T09:20:43.972Z,101747.77
2018-06-18T09:23:12.056Z,101751.19
2018-06-18T09:25:47.365Z,101743.61
2018-06-18T09:28:16.046Z,101741.71
2018-06-18T09:30:44.109Z,101744.88
2018-06-18T09:33:12.181Z,101751.38
2018-06-18T09:35:40.284Z,101753.80
2018-06-18T09:38:08.327Z,101758.56
2018-06-18T09:40:36.412Z,101755.83
2018-06-18T09:43:04.502Z,101748.48
2018-06-18T09:45:32.584Z,101753.56
2018-06-18T09:48:00.714Z,101747.36
2018-06-18T09:51:32.948Z,101745.91
2018-06-18T09:54:06.390Z,101746.27
2018-06-18T09:56:39.716Z,101749.86
2018-06-18T09:59:13.092Z,101750.28
2018-06-18T10:01:41.164Z,101743.33
2018-06-18T10:04:09.241Z,101752.58
2018-06-18T10:06:38.379Z,101759.45
2018-06-18T10:09:08.814Z,101756.41
2018-06-18T10:11:37.197Z,101761.91
2018-06-18T10:14:07.834Z,101752.60
2018-06-18T10:16:35.908Z,101752.67
2018-06-18T10:19:03.984Z,101756.76
2018-06-18T10:21:32.059Z,101754.92
2018-06-18T10:24:00.154Z,101759.70
2018-06-18T10:26:28.259Z,101756.66
2018-06-18T10:28:56.333Z,101758.36
2018-06-18T10:31:24.393Z,101757.08
2018-06-18T10:33:57.989Z,101750.55
2018-06-18T10:36:31.499Z,101756.13
2018-06-18T10:39:05.075Z,101755.14
2018-06-18T10:41:38.747Z,101748.16
2018-06-18T10:44:06.734Z,101748.66
2018-06-18T10:46:34.826Z,101749.20
2018-06-18T10:49:02.924Z,101749.78
2018-06-18T10:51:31.008Z,101757.64
2018-06-18T10:53:59.085Z,101754.01
2018-06-18T10:56:27.173Z,101759.21
2018-06-18T10:58:55.279Z,101764.74
2018-06-18T11:01:33.208Z,101765.20
2018-06-18T11:04:01.900Z,101770.53
2018-06-18T11:06:33.030Z,101774.16
2018-06-18T11:09:01.110Z,101776.94
2018-06-18T11:11:29.572Z,101771.86
2018-06-18T11:13:57.660Z,101772.91
2018-06-18T11:16:26.012Z,101773.92
2018-06-18T11:18:59.179Z,101774.03
2018-06-18T11:21:32.661Z,101773.08
2018-06-18T11:25:04.629Z,101779.75
2018-06-18T11:27:32.719Z,101774.16
2018-06-18T11:30:00.873Z,101758.84
2018-06-18T11:32:28.915Z,101759.73
2018-06-18T11:34:56.993Z,101760.42
2018-06-18T11:37:25.025Z,101760.75
2018-06-18T11:39:53.108Z,101754.43
2018-06-18T11:42:21.202Z,101750.72
2018-06-18T11:44:49.268Z,101764.55
2018-06-18T11:47:17.324Z,101763.83
2018-06-18T11:49:45.381Z,101758.09
2018-06-18T11:52:13.465Z,101753.37
2018-06-18T11:54:41.546Z,101761.11
2018-06-18T11:57:09.601Z,101745.52
2018-06-18T11:59:42.984Z,101750.12
2018-06-18T12:02:16.538Z,101754.20
2018-06-18T12:04:50.066Z,101745.88
2018-06-18T12:07:23.677Z,101748.19
2018-06-18T12:09:52.438Z,101744.31
2018-06-18T12:12:20.411Z,101753.67
2018-06-18T12:14:48.456Z,101743.27
2018-06-18T12:17:16.492Z,101748.89
2018-06-18T12:19:44.538Z,101751.91
2018-06-18T12:22:12.641Z,101757.17
2018-06-18T12:24:40.683Z,101752.98
2018-06-18T12:27:09.765Z,101753.40
2018-06-18T12:29:37.820Z,101755.00
2018-06-18T12:32:05.917Z,101746.13
2018-06-18T12:34:33.996Z,101754.08
2018-06-18T12:37:02.109Z,101745.79
2018-06-18T12:39:30.189Z,101735.64
2018-06-18T12:42:03.278Z,101740.39
2018-06-18T12:44:37.767Z,101739.80
2018-06-18T12:47:11.512Z,101736.80
2018-06-18T12:49:45.037Z,101746.09
2018-06-18T12:52:18.726Z,101742.02
2018-06-18T12:54:52.433Z,101742.75
2018-06-18T12:57:20.588Z,101742.34
2018-06-18T12:59:48.965Z,101735.47
2018-06-18T13:02:20.893Z,101745.66
2018-06-18T13:04:52.815Z,101745.98
2018-06-18T13:07:20.997Z,101744.98
2018-06-18T13:09:49.073Z,101741.97
2018-06-18T13:12:17.148Z,101744.38
2018-06-18T13:14:45.244Z,101737.53
2018-06-18T13:17:13.341Z,101741.76
2018-06-18T13:19:41.452Z,101742.48
2018-06-18T13:22:09.533Z,101742.55
2018-06-18T13:24:37.730Z,101740.78
2018-06-18T13:27:05.808Z,101747.60
2018-06-18T13:29:33.932Z,101752.61
2018-06-18T13:32:01.955Z,101743.41
2018-06-18T13:34:30.013Z,101740.45
2018-06-18T13:37:03.498Z,101735.77
2018-06-18T13:39:37.054Z,101739.02
2018-06-18T13:42:10.501Z,101742.87
2018-06-18T13:44:43.980Z,101740.31
2018-06-18T13:47:17.545Z,101734.27
2018-06-18T13:49:51.037Z,101738.89
2018-06-18T13:52:19.083Z,101735.84
2018-06-18T13:54:47.144Z,101739.48
2018-06-18T13:57:15.263Z,101732.51
2018-06-18T13:59:43.356Z,101722.55
2018-06-18T14:02:11.416Z,101723.61
2018-06-18T14:04:39.468Z,101727.28
2018-06-18T14:07:07.539Z,101723.91
2018-06-18T14:09:35.576Z,101715.48
2018-06-18T14:12:03.648Z,101722.41
2018-06-18T14:14:31.698Z,101716.58
2018-06-18T14:16:59.788Z,101720.42
2018-06-18T14:19:33.275Z,101718.00
2018-06-18T14:22:01.348Z,101717.41
2018-06-18T14:24:29.387Z,101715.19
2018-06-18T14:26:57.460Z,101712.97
2018-06-18T14:29:30.963Z,101706.52
2018-06-18T14:31:59.804Z,101706.52
2018-06-18T14:34:33.344Z,101706.11
2018-06-18T14:37:06.908Z,101695.62
2018-06-18T14:39:40.338Z,101698.03
2018-06-18T14:42:09.194Z,101700.03
2018-06-18T14:44:38.220Z,101699.02
2018-06-18T14:47:06.656Z,101692.16
2018-06-18T14:49:34.719Z,101692.36
2018-06-18T14:52:02.764Z,101688.94
2018-06-18T14:54:30.864Z,101689.54
2018-06-18T14:57:01.121Z,101687.72
2018-06-18T14:59:39.550Z,101680.85
2018-06-18T15:02:07.578Z,101676.83
2018-06-18T15:04:35.646Z,101675.23
2018-06-18T15:07:04.112Z,101670.78
2018-06-18T15:09:32.233Z,101668.38
2018-06-18T15:12:00.249Z,101666.14
2018-06-18T15:14:28.300Z,101661.91
2018-06-18T15:16:56.408Z,101663.73
2018-06-18T15:19:24.480Z,101658.27
2018-06-18T15:21:56.217Z,101663.31
2018-06-18T15:24:36.397Z,101655.20
2018-06-18T15:27:04.488Z,101660.09
2018-06-18T15:29:32.524Z,101651.38
2018-06-18T15:32:00.636Z,101648.56
2018-06-18T15:34:28.720Z,101653.17
2018-06-18T15:36:56.830Z,101646.93
2018-06-18T15:39:24.909Z,101650.95
2018-06-18T15:41:52.951Z,101659.23
2018-06-18T15:44:21.060Z,101655.40
2018-06-18T15:46:49.223Z,101650.95
2018-06-18T15:49:17.369Z,101643.70
2018-06-18T15:51:45.517Z,101647.31
2018-06-18T15:54:13.602Z,101642.67
2018-06-18T15:56:41.696Z,101647.72
2018-06-18T15:59:09.763Z,101646.50
2018-06-18T16:01:37.924Z,101654.55
2018-06-18T16:04:06.381Z,101649.53
2018-06-18T16:06:34.428Z,101649.53
2018-06-18T16:09:02.568Z,101647.72
2018-06-18T16:11:30.585Z,101642.51
2018-06-18T16:13:58.644Z,101637.48
2018-06-18T16:16:26.697Z,101636.09
2018-06-18T16:18:54.797Z,101640.74
2018-06-18T16:21:22.917Z,101641.55
2018-06-18T16:23:51.633Z,101636.50
2018-06-18T16:26:19.792Z,101637.30
2018-06-18T16:28:47.848Z,101632.08
2018-06-18T16:31:15.896Z,101632.46
2018-06-18T16:33:44.384Z,101636.10
2018-06-18T16:36:12.441Z,101632.07
2018-06-18T16:38:40.508Z,101631.66
2018-06-18T16:41:08.565Z,101627.02
2018-06-18T16:43:36.997Z,101625.98
2018-06-18T16:46:05.357Z,101622.38
2018-06-18T16:48:33.414Z,101618.12
2018-06-18T16:51:01.548Z,101623.16
2018-06-18T16:53:29.616Z,101613.48
2018-06-18T16:55:57.656Z,101614.28
2018-06-18T16:58:25.717Z,101612.47
2018-06-18T17:00:53.766Z,101613.07
2018-06-18T17:03:21.808Z,101617.91
2018-06-18T17:05:50.164Z,101620.09
2018-06-18T17:08:18.209Z,101622.25
2018-06-18T17:10:46.267Z,101626.84
2018-06-18T17:13:14.322Z,101618.38
2018-06-18T17:15:42.500Z,101619.81
2018-06-18T17:18:10.549Z,101618.59
2018-06-18T17:20:38.609Z,101623.99
2018-06-18T17:23:06.667Z,101625.41
2018-06-18T17:25:34.752Z,101622.38
2018-06-18T17:28:02.837Z,101621.66
2018-06-18T17:30:30.918Z,101617.27
2018-06-18T17:32:58.961Z,101627.38
2018-06-18T17:35:27.032Z,101629.40
2018-06-18T17:37:55.367Z,101630.98
2018-06-18T17:40:23.396Z,101627.55
2018-06-18T17:42:51.472Z,101622.11
2018-06-18T17:45:19.544Z,101627.15
2018-06-18T17:47:47.622Z,101621.53
2018-06-18T17:50:15.668Z,101624.97
2018-06-18T17:52:43.720Z,101624.36
2018-06-18T17:55:11.793Z,101624.80
2018-06-18T17:57:39.865Z,101625.61
2018-06-18T18:00:07.940Z,101621.38
2018-06-18T18:02:36.013Z,101619.16
2018-06-18T18:05:04.109Z,101622.77
2018-06-18T18:07:32.192Z,101624.59
2018-06-18T18:10:00.356Z,101622.17
2018-06-18T18:12:28.419Z,101628.81
2018-06-18T18:14:56.488Z,101618.51
2018-06-18T18:17:24.560Z,101621.09
2018-06-18T18:19:52.637Z,101623.74
2018-06-18T18:22:20.688Z,101626.77
2018-06-18T18:24:48.753Z,101630.63
2018-06-18T18:27:16.813Z,101655.46
2018-06-18T18:29:44.872Z,101661.30
2018-06-18T18:32:12.972Z,101663.86
2018-06-18T18:34:41.056Z,101671.66
2018-06-18T18:37:09.122Z,101677.30
2018-06-18T18:39:37.192Z,101672.39
2018-06-18T18:42:05.307Z,101665.62
2018-06-18T18:44:33.377Z,101664.51
2018-06-18T18:47:01.432Z,101662.33
2018-06-18T18:49:29.492Z,101655.00
2018-06-18T18:51:57.584Z,101656.31
2018-06-18T18:54:40.591Z,101662.06
2018-06-18T18:57:18.878Z,101660.39
2018-06-18T18:59:46.943Z,101649.61
2018-06-18T19:02:15.053Z,101658.20
2018-06-18T19:04:58.243Z,101659.41
2018-06-18T19:07:32.178Z,101662.55
2018-06-18T19:10:20.255Z,101666.45
2018-06-18T19:12:48.648Z,101661.53
2018-06-18T19:15:16.731Z,101660.09
2018-06-18T19:17:44.811Z,101658.00
2018-06-18T19:20:28.760Z,101656.17
2018-06-18T19:22:56.847Z,101652.31
2018-06-18T19:25:24.908Z,101646.43
2018-06-18T19:27:52.993Z,101668.66
2018-06-18T19:30:21.060Z,101671.04
2018-06-18T19:32:49.693Z,101675.65
2018-06-18T19:35:17.772Z,101674.41
2018-06-18T19:37:49.129Z,101680.80
2018-06-18T19:40:18.993Z,101673.08
2018-06-18T19:42:51.160Z,101673.80
2018-06-18T19:45:20.989Z,101684.61
2018-06-18T19:47:53.264Z,101683.55
2018-06-18T19:50:21.317Z,101678.41
2018-06-18T19:52:49.416Z,101691.23
2018-06-18T19:55:21.569Z,101694.20
2018-06-18T19:57:49.648Z,101693.85
2018-06-18T20:00:18.901Z,101693.38
2018-06-18T20:02:48.525Z,101696.55
2018-06-18T20:05:16.702Z,101699.97
2018-06-18T20:07:54.781Z,101695.52
2018-06-18T20:10:38.206Z,101689.81
2018-06-18T20:13:06.271Z,101696.17
2018-06-18T20:15:34.320Z,101696.86
2018-06-18T20:18:02.383Z,101694.01
2018-06-18T20:20:30.440Z,101690.92
2018-06-18T20:22:58.497Z,101689.67
2018-06-18T20:25:30.253Z,101696.16
2018-06-18T20:27:59.141Z,101689.62
2018-06-18T20:30:27.204Z,101706.47
2018-06-18T20:32:55.276Z,101701.48
2018-06-18T20:35:27.045Z,101704.67
2018-06-18T20:37:55.128Z,101707.39
2018-06-18T20:40:23.186Z,101711.22
2018-06-18T20:42:51.404Z,101709.81
2018-06-18T20:45:19.488Z,101722.09
2018-06-18T20:47:47.536Z,101719.43
2018-06-18T20:50:15.603Z,101715.13
2018-06-18T20:52:43.666Z,101723.55
2018-06-18T20:55:11.729Z,101724.52
2018-06-18T20:57:39.773Z,101734.42
2018-06-18T21:00:07.959Z,101728.22
2018-06-18T21:02:36.013Z,101731.27
2018-06-18T21:05:04.077Z,101730.65
2018-06-18T21:07:32.389Z,101727.26
2018-06-18T21:10:00.549Z,101732.88
2018-06-18T21:12:28.602Z,101743.50
2018-06-18T21:14:56.657Z,101742.31
2018-06-18T21:17:24.708Z,101743.36
2018-06-18T21:19:52.782Z,101735.73
2018-06-18T21:22:20.840Z,101743.13
2018-06-18T21:24:48.967Z,101733.45
2018-06-18T21:27:17.036Z,101735.03
2018-06-18T21:29:45.097Z,101735.61
2018-06-18T21:32:13.140Z,101740.98
2018-06-18T21:34:41.202Z,101742.39
2018-06-18T21:37:09.244Z,101744.61
2018-06-18T21:39:37.317Z,101739.38
2018-06-18T21:42:05.459Z,101743.09
2018-06-18T21:44:45.027Z,101737.83
2018-06-18T21:47:13.068Z,101738.59
2018-06-18T21:49:41.128Z,101741.39
2018-06-18T21:52:09.168Z,101735.92
2018-06-18T21:54:37.254Z,101745.53
2018-06-18T21:57:05.307Z,101744.34
2018-06-18T21:59:33.352Z,101742.94
2018-06-18T22:02:01.423Z,101742.05
2018-06-18T22:04:29.465Z,101747.16
2018-06-18T22:06:57.537Z,101745.08
2018-06-18T22:09:25.596Z,101745.08
2018-06-18T22:11:54.892Z,101753.42
2018-06-18T22:14:23.662Z,101745.77
2018-06-18T22:16:51.714Z,101740.89
2018-06-18T22:19:19.781Z,101749.09
2018-06-18T22:21:47.916Z,101733.52
2018-06-18T22:24:15.961Z,101723.26
2018-06-18T22:26:44.057Z,101731.09
2018-06-18T22:29:12.985Z,101733.28
2018-06-18T22:31:41.052Z,101741.04
2018-06-18T22:34:09.103Z,101725.39
2018-06-18T22:36:37.149Z,101736.91
2018-06-18T22:39:07.940Z,101742.27
2018-06-18T22:41:36.097Z,101747.70
2018-06-18T22:44:04.227Z,101747.94
2018-06-18T22:46:32.288Z,101747.47
2018-06-18T22:49:00.344Z,101747.26
2018-06-18T22:51:28.405Z,101747.26
2018-06-18T22:53:56.507Z,101742.23
2018-06-18T22:56:24.516Z,101744.97
2018-06-18T22:58:52.568Z,101738.03
2018-06-18T23:01:20.620Z,101736.62
2018-06-18T23:03:48.689Z,101733.72
2018-06-18T23:06:16.756Z,101735.50
2018-06-18T23:08:44.829Z,101733.20
2018-06-18T23:11:12.902Z,101730.33
2018-06-18T23:13:40.948Z,101725.95
2018-06-18T23:16:09.525Z,101733.91
2018-06-18T23:18:37.580Z,101735.92
2018-06-18T23:21:05.655Z,101727.58
2018-06-18T23:23:33.725Z,101733.89
2018-06-18T23:26:01.794Z,101732.17
2018-06-18T23:28:38.890Z,101729.75
2018-06-18T23:31:06.989Z,101733.87
2018-06-18T23:33:35.061Z,101735.23
2018-06-18T23:36:03.217Z,101738.09
2018-06-18T23:38:31.278Z,101736.37
2018-06-18T23:40:59.397Z,101730.69
2018-06-18T23:43:27.440Z,101735.15
2018-06-18T23:45:55.519Z,101734.12
2018-06-18T23:48:23.568Z,101724.70
2018-06-18T23:50:51.617Z,101733.09
2018-06-18T23:53:19.764Z,101734.25
2018-06-18T23:55:47.980Z,101723.65
2018-06-18T23:58:16.049Z,101737.80
